Rosedale, MD

3:24 AM EDT on August 05, 2015 (GMT -0400)
Lauraville | | Change Station
CLOSE
Current Station
Personal Weather Station
Location: Baltimore, MD
Elevation: 289 ft
Nearby Weather Stations

Elev 289 ft 39.35 °N, 76.57 °W | Updated 5 seconds ago

Partly Cloudy
Partly Cloudy
68.6 °F
Feels Like 68.6 °F
N
0.0
Wind Variable Wind from NW
Gusts 0.0 mph

Today
High -- | Low -- °F
--% Chance of Precip.
Yesterday
High -- | Low -- °F
Precip. -- in
6:09 AM 8:14 PM
Waning Gibbous, 70% visible
Pressure 29.93 in
Visibility 7.0 miles
Clouds Few 4000 ft
Scattered Clouds 9000 ft
Mostly Cloudy 14000 ft
Mostly Cloudy 25000 ft
Dew Point 69 °F
Humidity 100%
Rainfall 0.00 in
Snow Depth Not available.
UV 0 out of 12
Pollen 7.10 out of 12
Air Quality Not available.
Flu Activity Not available.
METAR KBWI 050654Z VRB03KT 7SM FEW040 SCT090 BKN140 BKN250 21/20 A2993 RMK AO2 SLP134 OCNL LTGIC DSNT SE CB DSNT SE MOV E T02110200

More Conditions Fewer Conditions

Pressure 29.93 in
Visibility 7.0 miles
Clouds Few 4000 ft
Scattered Clouds 9000 ft
Mostly Cloudy 14000 ft
Mostly Cloudy 25000 ft
Dew Point 69 °F
Humidity 100%
Rainfall 0.00 in
Snow Depth Not available.
UV 0 out of 12
Pollen 7.10 out of 12
Air Quality Not available.
Flu Activity Not available.
METAR KBWI 050654Z VRB03KT 7SM FEW040 SCT090 BKN140 BKN250 21/20 A2993 RMK AO2 SLP134 OCNL LTGIC DSNT SE CB DSNT SE MOV E T02110200

More Conditions Fewer Conditions

10-Day Weather Forecast

×

Almanac

Astronomy

Aug. 05, 2015 Rise Set
Actual Time
Civil Twilight
Nautical Twilight
Astronomical Twilight
Moon
Length of Visible Light
Length of Day
Tomorrow will be .
, % of the Moon is Illuminated

Today's Extremes

State Highs State Lows

Community

WunderPhotos

Upload Photos

1,844,105 photos uploaded!

WunderBlogs® & News

Nearby

Air Quality

  Air Quality AQ Index Pollutant
Not available.

Snow Depth

Station Depth Elevation

Earthquake Activity

City Distance Mag. Time & Date
Minimum magnitude displayed is 2.5.

Coastal Water Temperatures

Place Temperature

Stations

Nearby Weather Stations

Station Location Temp. Windchill Dew Point Humidity Wind Precip. Elev Updated Type